CheckWX is a tool to help pilots better visualize weather data.  It is not intended as a substitute for an official pre-flight weather briefing.

06:00:53 UTC

KOVE METAR
Oroville Municipal Airport
Oroville, California, USA
Current

1 hour ago

KOVE 200453Z AUTO 11006KT 10SM CLR 08/M02 A3012 RMK AO2 SLP202 T00831017 TSNO
Observed
Feb-20 @ 04:53 UTC
Wind
  • 110° at 6 KTS
Visibility
16,093 meters
Flight Rules
VFR
Cloud Levels
  • Clear skies
Temperature
C / 46°F
Dewpoint
-2°C / 28°F
Humidity
50%
Altimeter
30.12" Hg
Pressure
1020.2 hPa
Previous

2 hours ago

KOVE 200353Z AUTO 12007KT 10SM CLR 09/00 A3010 RMK AO2 SLP195 T00890000 TSNO
Observed
Feb-20 @ 03:53 UTC
Wind
  • 120° at 7 KTS
Visibility
16,093 meters
Flight Rules
VFR
Cloud Levels
  • Clear skies
Temperature
C / 48°F
Dewpoint
C / 32°F
Humidity
54%
Altimeter
30.1" Hg
Pressure
1019.5 hPa
Previous

3 hours ago

KOVE 200253Z AUTO 14008KT 10SM CLR 09/01 A3011 RMK AO2 SLP200 T00940006 56011 TSNO
Observed
Feb-20 @ 02:53 UTC
Wind
  • 140° at 8 KTS
Visibility
16,093 meters
Flight Rules
VFR
Cloud Levels
  • Clear skies
Temperature
C / 48°F
Dewpoint
C / 34°F
Humidity
58%
Altimeter
30.11" Hg
Pressure
1020 hPa